BAW12S EGKK-EGCC
Flight info
| Callsign | BAW12S |
|---|---|
| Flight time | 0h 34m |
| Altitude | 24000 |
| Route | LAM N57 WELIN DCT TIMPO DCT ELVOS DCT TNT |
| Aircraft | A320/M-SDE3FGHIRWY/LB1 |
Departure
| Time | 2026-05-04 10:31 |
|---|---|
| Airport | London Gatwick Airport (EGKK) |
Arrival
| Time | 2026-05-04 11:06 |
|---|---|
| Airport | Manchester Airport (EGCC) |
| Time | Latitude | Longitude | Altitude | Speed | Heading |
|---|---|---|---|---|---|
| 2026-05-04 10:00 | 51.15810 | -0.17753 | 205 ft | 0 kts | 347° |
| 2026-05-04 10:14 | 51.15808 | -0.17753 | 205 ft | 2 kts | 347° |
| 2026-05-04 10:14 | 51.15784 | -0.17744 | 211 ft | 4 kts | 347° |
| 2026-05-04 10:16 | 51.15746 | -0.17628 | 212 ft | 0 kts | 257° |
| 2026-05-04 10:19 | 51.15645 | -0.18337 | 208 ft | 11 kts | 234° |
| 2026-05-04 10:19 | 51.15567 | -0.18342 | 209 ft | 13 kts | 167° |
| 2026-05-04 10:19 | 51.15471 | -0.18311 | 205 ft | 15 kts | 169° |
| 2026-05-04 10:19 | 51.15359 | -0.18272 | 214 ft | 18 kts | 167° |
| 2026-05-04 10:20 | 51.15235 | -0.18226 | 208 ft | 15 kts | 167° |
| 2026-05-04 10:20 | 51.15187 | -0.18331 | 210 ft | 15 kts | 260° |
| 2026-05-04 10:20 | 51.15163 | -0.18501 | 210 ft | 17 kts | 258° |
| 2026-05-04 10:20 | 51.15136 | -0.18698 | 205 ft | 20 kts | 259° |
| 2026-05-04 10:21 | 51.15105 | -0.18921 | 208 ft | 22 kts | 258° |
| 2026-05-04 10:21 | 51.15071 | -0.19175 | 210 ft | 25 kts | 259° |
| 2026-05-04 10:21 | 51.15034 | -0.19450 | 205 ft | 26 kts | 257° |
| 2026-05-04 10:21 | 51.15000 | -0.19691 | 214 ft | 18 kts | 257° |
| 2026-05-04 10:22 | 51.14937 | -0.20146 | 207 ft | 23 kts | 257° |
| 2026-05-04 10:22 | 51.14903 | -0.20387 | 204 ft | 21 kts | 257° |
| 2026-05-04 10:22 | 51.14873 | -0.20601 | 208 ft | 21 kts | 258° |
| 2026-05-04 10:23 | 51.14845 | -0.20801 | 205 ft | 17 kts | 258° |
| 2026-05-04 10:23 | 51.14818 | -0.21001 | 205 ft | 20 kts | 258° |
| 2026-05-04 10:25 | 51.14720 | -0.21407 | 209 ft | 0 kts | 175° |
| 2026-05-04 10:25 | 51.14719 | -0.21407 | 209 ft | 1 kts | 175° |
| 2026-05-04 10:26 | 51.14685 | -0.21395 | 206 ft | 8 kts | 158° |
| 2026-05-04 10:26 | 51.14672 | -0.21378 | 207 ft | 0 kts | 135° |
| 2026-05-04 10:27 | 51.14656 | -0.21354 | 215 ft | 4 kts | 135° |
| 2026-05-04 10:27 | 51.14624 | -0.21332 | 205 ft | 6 kts | 166° |
| 2026-05-04 10:27 | 51.14615 | -0.21329 | 205 ft | 0 kts | 166° |
| 2026-05-04 10:28 | 51.14614 | -0.21328 | 205 ft | 1 kts | 166° |
| 2026-05-04 10:28 | 51.14609 | -0.21326 | 208 ft | 0 kts | 166° |
| 2026-05-04 10:28 | 51.14605 | -0.21325 | 209 ft | 3 kts | 166° |
| 2026-05-04 10:28 | 51.14556 | -0.21298 | 207 ft | 12 kts | 149° |
| 2026-05-04 10:29 | 51.14522 | -0.21157 | 206 ft | 10 kts | 77° |
| 2026-05-04 10:29 | 51.14524 | -0.21146 | 206 ft | 0 kts | 78° |
| 2026-05-04 10:29 | 51.14524 | -0.21141 | 206 ft | 1 kts | 77° |
| 2026-05-04 10:30 | 51.14529 | -0.21106 | 211 ft | 22 kts | 77° |
| 2026-05-04 10:30 | 51.14621 | -0.20454 | 209 ft | 95 kts | 77° |
| 2026-05-04 10:30 | 51.14805 | -0.19130 | 213 ft | 148 kts | 77° |
| 2026-05-04 10:31 | 51.15060 | -0.17321 | 398 ft | 177 kts | 77° |
| 2026-05-04 10:31 | 51.15328 | -0.15364 | 1035 ft | 183 kts | 76° |
| 2026-05-04 10:32 | 51.18485 | -0.01607 | 5036 ft | 264 kts | 70° |
| 2026-05-04 10:33 | 51.19106 | 0.01178 | 5930 ft | 270 kts | 71° |
| 2026-05-04 10:33 | 51.19735 | 0.04039 | 6806 ft | 276 kts | 70° |
| 2026-05-04 10:33 | 51.20745 | 0.06664 | 7596 ft | 284 kts | 45° |
| 2026-05-04 10:33 | 51.22415 | 0.08348 | 8456 ft | 289 kts | 18° |
| 2026-05-04 10:34 | 51.24405 | 0.08867 | 9333 ft | 292 kts | 3° |
| 2026-05-04 10:34 | 51.26449 | 0.09042 | 10168 ft | 297 kts | 1° |
| 2026-05-04 10:34 | 51.28596 | 0.09191 | 10466 ft | 321 kts | 1° |
| 2026-05-04 10:34 | 51.30906 | 0.09343 | 10708 ft | 343 kts | 1° |
| 2026-05-04 10:35 | 51.33334 | 0.09496 | 11290 ft | 353 kts | 1° |
| 2026-05-04 10:35 | 51.35808 | 0.09658 | 11993 ft | 358 kts | 1° |
| 2026-05-04 10:35 | 51.38309 | 0.09828 | 12704 ft | 362 kts | 1° |
| 2026-05-04 10:35 | 51.40843 | 0.10000 | 13415 ft | 367 kts | 1° |
| 2026-05-04 10:36 | 51.43406 | 0.10174 | 14091 ft | 371 kts | 1° |
| 2026-05-04 10:36 | 51.46004 | 0.10282 | 14734 ft | 374 kts | 355° |
| 2026-05-04 10:36 | 51.48550 | 0.09442 | 15335 ft | 375 kts | 337° |
| 2026-05-04 10:36 | 51.50827 | 0.07397 | 15952 ft | 376 kts | 323° |
| 2026-05-04 10:37 | 51.52988 | 0.04999 | 16577 ft | 380 kts | 323° |
| 2026-05-04 10:37 | 51.55161 | 0.02555 | 17207 ft | 383 kts | 323° |
| 2026-05-04 10:37 | 51.57347 | 0.00079 | 17846 ft | 387 kts | 323° |
| 2026-05-04 10:37 | 51.59529 | -0.02400 | 18446 ft | 391 kts | 323° |
| 2026-05-04 10:39 | 51.73196 | -0.17851 | 22077 ft | 408 kts | 322° |
| 2026-05-04 10:39 | 51.75522 | -0.20492 | 22636 ft | 410 kts | 322° |
| 2026-05-04 10:39 | 51.77860 | -0.23152 | 23183 ft | 412 kts | 322° |
| 2026-05-04 10:40 | 51.80214 | -0.25832 | 23704 ft | 415 kts | 322° |
| 2026-05-04 10:40 | 51.82570 | -0.28518 | 23982 ft | 415 kts | 321° |
| 2026-05-04 10:40 | 51.84942 | -0.31225 | 24051 ft | 421 kts | 321° |
| 2026-05-04 10:40 | 51.87356 | -0.33985 | 24057 ft | 428 kts | 321° |
| 2026-05-04 10:41 | 51.89795 | -0.36771 | 24057 ft | 429 kts | 321° |
| 2026-05-04 10:41 | 51.92239 | -0.39560 | 24056 ft | 429 kts | 321° |
| 2026-05-04 10:41 | 51.94679 | -0.42347 | 24058 ft | 429 kts | 321° |
| 2026-05-04 10:41 | 51.97115 | -0.45143 | 24054 ft | 429 kts | 321° |
| 2026-05-04 10:42 | 51.99552 | -0.47947 | 24051 ft | 429 kts | 321° |
| 2026-05-04 10:42 | 52.01986 | -0.50753 | 24048 ft | 429 kts | 321° |
| 2026-05-04 10:42 | 52.04423 | -0.53564 | 24058 ft | 429 kts | 321° |
| 2026-05-04 10:42 | 52.06861 | -0.56375 | 24058 ft | 429 kts | 321° |
| 2026-05-04 10:43 | 52.09299 | -0.59183 | 24056 ft | 429 kts | 321° |
| 2026-05-04 10:44 | 52.26263 | -0.78936 | 24034 ft | 429 kts | 321° |
| 2026-05-04 10:45 | 52.28717 | -0.81802 | 24037 ft | 429 kts | 322° |
| 2026-05-04 10:45 | 52.31149 | -0.84646 | 24019 ft | 430 kts | 322° |
| 2026-05-04 10:45 | 52.33547 | -0.87454 | 24015 ft | 430 kts | 322° |
| 2026-05-04 10:45 | 52.35982 | -0.90307 | 24012 ft | 431 kts | 321° |
| 2026-05-04 10:46 | 52.38419 | -0.93167 | 24010 ft | 431 kts | 321° |
| 2026-05-04 10:46 | 52.40862 | -0.96036 | 24016 ft | 432 kts | 321° |
| 2026-05-04 10:46 | 52.43300 | -0.98906 | 24009 ft | 432 kts | 321° |
| 2026-05-04 10:46 | 52.45737 | -1.01785 | 24011 ft | 431 kts | 322° |
| 2026-05-04 10:47 | 52.48144 | -1.04634 | 23771 ft | 423 kts | 322° |
| 2026-05-04 10:47 | 52.50518 | -1.07449 | 23530 ft | 420 kts | 322° |
| 2026-05-04 10:47 | 52.52881 | -1.10249 | 23244 ft | 418 kts | 322° |
| 2026-05-04 10:47 | 52.55233 | -1.13032 | 22972 ft | 416 kts | 322° |
| 2026-05-04 10:49 | 52.71262 | -1.32103 | 19707 ft | 397 kts | 324° |
| 2026-05-04 10:49 | 52.73578 | -1.34582 | 19181 ft | 397 kts | 326° |
| 2026-05-04 10:50 | 52.75939 | -1.36958 | 18605 ft | 396 kts | 327° |
| 2026-05-04 10:51 | 52.91927 | -1.53066 | 14801 ft | 367 kts | 326° |
| 2026-05-04 10:52 | 52.94133 | -1.55343 | 14102 ft | 369 kts | 327° |
| 2026-05-04 10:52 | 52.96269 | -1.57546 | 13553 ft | 365 kts | 326° |
| 2026-05-04 10:52 | 52.98414 | -1.59758 | 13004 ft | 360 kts | 326° |
| 2026-05-04 10:54 | 53.10351 | -1.76604 | 11320 ft | 291 kts | 309° |
| 2026-05-04 10:54 | 53.11664 | -1.79143 | 11069 ft | 289 kts | 309° |
| 2026-05-04 10:56 | 53.20777 | -1.96874 | 8293 ft | 278 kts | 310° |
| 2026-05-04 10:56 | 53.21984 | -1.99220 | 8225 ft | 255 kts | 309° |
| 2026-05-04 10:56 | 53.23007 | -2.01472 | 8137 ft | 233 kts | 297° |
| 2026-05-04 10:57 | 53.23583 | -2.03892 | 8026 ft | 222 kts | 283° |
| 2026-05-04 10:57 | 53.23753 | -2.06461 | 7656 ft | 223 kts | 268° |
| 2026-05-04 10:57 | 53.23651 | -2.09048 | 7327 ft | 225 kts | 267° |
| 2026-05-04 10:57 | 53.23553 | -2.11663 | 6987 ft | 227 kts | 267° |
| 2026-05-04 10:58 | 53.23458 | -2.14306 | 6661 ft | 229 kts | 267° |
| 2026-05-04 10:58 | 53.23361 | -2.16977 | 6303 ft | 231 kts | 268° |
| 2026-05-04 10:58 | 53.23262 | -2.19663 | 5964 ft | 233 kts | 267° |
| 2026-05-04 10:58 | 53.23162 | -2.22377 | 5576 ft | 236 kts | 267° |
| 2026-05-04 10:59 | 53.23060 | -2.25121 | 5199 ft | 235 kts | 268° |
| 2026-05-04 10:59 | 53.22958 | -2.27802 | 4861 ft | 228 kts | 268° |
| 2026-05-04 10:59 | 53.22859 | -2.30415 | 4522 ft | 223 kts | 267° |
| 2026-05-04 10:59 | 53.22764 | -2.32963 | 4203 ft | 217 kts | 268° |
| 2026-05-04 11:00 | 53.22673 | -2.35413 | 3926 ft | 209 kts | 267° |
| 2026-05-04 11:01 | 53.25037 | -2.46213 | 2728 ft | 135 kts | 10° |
| 2026-05-04 11:02 | 53.25907 | -2.45703 | 2514 ft | 135 kts | 32° |
| 2026-05-04 11:02 | 53.26599 | -2.44652 | 2327 ft | 135 kts | 52° |
| 2026-05-04 11:05 | 53.34238 | -2.28914 | 227 ft | 52 kts | 51° |
| 2026-05-04 11:06 | 53.34458 | -2.28571 | 227 ft | 36 kts | 28° |
| 2026-05-04 11:06 | 53.34663 | -2.28433 | 230 ft | 29 kts | 21° |
| 2026-05-04 11:06 | 53.34793 | -2.28233 | 231 ft | 26 kts | 52° |
| 2026-05-04 11:06 | 53.34884 | -2.28042 | 229 ft | 13 kts | 51° |
| 2026-05-04 11:08 | 53.35252 | -2.27280 | 239 ft | 24 kts | 52° |
| 2026-05-04 11:10 | 53.35550 | -2.27428 | 246 ft | 0 kts | 321° |
| 2026-05-04 11:12 | 53.35857 | -2.27818 | 253 ft | 16 kts | 312° |
| 2026-05-04 11:12 | 53.35961 | -2.27863 | 255 ft | 17 kts | 336° |
| 2026-05-04 11:12 | 53.36050 | -2.27986 | 255 ft | 15 kts | 319° |
| 2026-05-04 11:12 | 53.36130 | -2.28107 | 255 ft | 16 kts | 315° |
| 2026-05-04 11:13 | 53.36216 | -2.28249 | 255 ft | 19 kts | 314° |
| 2026-05-04 11:13 | 53.36318 | -2.28421 | 255 ft | 22 kts | 315° |
| 2026-05-04 11:13 | 53.36449 | -2.28534 | 255 ft | 22 kts | 313° |
| 2026-05-04 11:13 | 53.36563 | -2.28734 | 255 ft | 25 kts | 312° |
| 2026-05-04 11:14 | 53.36592 | -2.28816 | 255 ft | 20 kts | 289° |
| 2026-05-04 11:16 | 53.36891 | -2.28789 | 255 ft | 0 kts | 136° |